Time;durP1;ratioP1;P1;durP2;ratioP2;P2;SDS_P1;SDS_P2;PMS_P1;PMS_P2;Temp;Humidity;BMP_temperature;BMP_pressure;BME280_temperature;BME280_humidity;BME280_pressure;Samples;Min_cycle;Max_cycle;Signal;HPM_P1;HPM_P2
2021/09/10 04:33:43;;;;;;;30.30;26.53;;;20.20;98.30;;;;;;4750938;24;20436;-83
2021/09/10 04:43:27;;;;;;;41.10;29.67;;;20.30;98.30;;;;;;4797246;24;20470;-83
2021/09/10 07:04:52;;;;;;;71.57;41.30;;;18.60;98.30;;;;;;5041084;23;20464;-83
2021/09/10 09:15:32;;;;;;;51.37;33.60;;;18.80;98.30;;;;;;5161747;22;20970;-81
2021/09/10 09:17:37;;;;;;;51.60;34.37;;;18.80;98.30;;;;;;5176223;23;20470;-81
2021/09/10 09:19:40;;;;;;;56.97;35.53;;;18.90;98.30;;;;;;5176373;23;20423;-81
2021/09/10 09:21:43;;;;;;;56.70;35.43;;;18.90;98.30;;;;;;5175607;23;20428;-79
2021/09/10 09:23:45;;;;;;;49.87;33.50;;;19.00;98.30;;;;;;5167173;23;20423;-81
2021/09/10 09:25:49;;;;;;;45.80;33.57;;;19.00;98.30;;;;;;5150539;23;20421;-81
2021/09/10 09:27:53;;;;;;;47.53;33.47;;;19.00;98.30;;;;;;5150809;23;20920;-81
2021/09/10 09:29:56;;;;;;;45.97;32.97;;;19.00;98.30;;;;;;5142568;23;20429;-81
2021/09/10 09:32:04;;;;;;;43.40;32.30;;;19.10;98.30;;;;;;5142629;23;20795;-81
2021/09/10 09:34:09;;;;;;;43.23;30.07;;;19.20;98.30;;;;;;5141861;23;22325;-81
2021/09/10 09:36:16;;;;;;;45.17;31.27;;;19.20;98.30;;;;;;5143331;23;20417;-81
2021/09/10 09:38:20;;;;;;;42.90;28.90;;;19.20;98.30;;;;;;5142634;23;20413;-81
2021/09/10 09:40:32;;;;;;;37.40;28.10;;;19.20;98.30;;;;;;5142756;23;20902;-81
2021/09/10 09:42:36;;;;;;;39.73;27.67;;;19.20;98.30;;;;;;5143370;23;20417;-80
2021/09/10 09:45:01;;;;;;;39.10;25.87;;;19.10;98.30;;;;;;5150919;23;20524;-81
2021/09/10 09:47:05;;;;;;;37.30;26.00;;;19.00;98.30;;;;;;5143516;23;20429;-81
2021/09/10 09:49:10;;;;;;;37.30;26.97;;;19.10;98.30;;;;;;5152091;23;20785;-81
2021/09/10 09:51:15;;;;;;;32.80;24.70;;;19.20;98.30;;;;;;5143358;23;20429;-80
2021/09/10 09:53:18;;;;;;;33.77;25.43;;;19.40;98.30;;;;;;5144483;23;20432;-81
2021/09/10 09:55:22;;;;;;;33.70;24.90;;;19.50;98.30;;;;;;5144303;23;20452;-81
2021/09/10 09:57:26;;;;;;;30.10;24.00;;;19.60;98.30;;;;;;5141091;23;20428;-81
2021/09/10 09:59:32;;;;;;;45.37;33.87;;;19.60;98.30;;;;;;5142082;23;20796;-81
2021/09/10 10:01:35;;;;;;;32.13;24.77;;;19.70;98.30;;;;;;5141474;23;20419;-81
2021/09/10 10:03:41;;;;;;;30.53;22.13;;;19.60;98.30;;;;;;5141403;23;20491;-81
2021/09/10 10:05:52;;;;;;;26.93;20.07;;;19.60;98.30;;;;;;5142080;23;20779;-80
2021/09/10 10:08:01;;;;;;;22.63;17.90;;;19.60;98.30;;;;;;5150352;23;20405;-80
2021/09/10 10:10:08;;;;;;;25.00;18.87;;;19.50;98.30;;;;;;5141210;23;20424;-81
2021/09/10 10:12:12;;;;;;;23.53;18.23;;;19.30;98.30;;;;;;5141879;23;20649;-81
2021/09/10 10:14:29;;;;;;;27.23;20.13;;;19.20;98.30;;;;;;5141437;23;20455;-81
2021/09/10 10:16:36;;;;;;;27.50;21.30;;;19.20;98.30;;;;;;5141658;23;20483;-81
2021/09/10 10:18:43;;;;;;;25.63;19.13;;;19.30;98.30;;;;;;5149806;23;20809;-80
2021/09/10 10:20:53;;;;;;;22.17;18.63;;;19.20;98.30;;;;;;5142076;23;20905;-81
2021/09/10 10:22:56;;;;;;;23.70;18.00;;;19.10;98.30;;;;;;5141389;23;20420;-80
2021/09/10 10:25:00;;;;;;;20.13;16.53;;;19.10;98.30;;;;;;5141188;23;20445;-81
2021/09/10 10:27:30;;;;;;;24.50;18.03;;;19.10;98.30;;;;;;5141493;23;20428;-81
2021/09/10 10:29:37;;;;;;;21.60;18.60;;;19.10;98.30;;;;;;5149915;23;20413;-81
2021/09/10 10:32:01;;;;;;;24.10;18.83;;;19.10;98.30;;;;;;5149935;23;20415;-80
2021/09/10 10:34:07;;;;;;;23.90;19.17;;;19.00;98.30;;;;;;5149503;23;20517;-81
2021/09/10 10:36:31;;;;;;;22.93;18.50;;;19.00;98.30;;;;;;5142034;23;20417;-81
2021/09/10 10:38:34;;;;;;;23.53;17.97;;;19.00;98.30;;;;;;5141672;23;20890;-81
2021/09/10 10:40:39;;;;;;;22.03;18.10;;;19.00;98.30;;;;;;5142183;23;20429;-80
2021/09/10 10:42:50;;;;;;;22.70;16.97;;;19.00;98.30;;;;;;5149912;23;20456;-80
2021/09/10 10:44:53;;;;;;;20.40;16.00;;;18.90;98.30;;;;;;5141481;23;20455;-80
2021/09/10 10:47:03;;;;;;;18.20;15.20;;;19.00;98.30;;;;;;5142267;23;20425;-81
2021/09/10 10:49:08;;;;;;;15.90;13.57;;;18.90;98.30;;;;;;5150121;23;20405;-81
2021/09/10 10:51:51;;;;;;;18.10;13.67;;;18.90;98.30;;;;;;5149904;23;21162;-81
2021/09/10 10:54:14;;;;;;;16.13;12.67;;;19.00;98.30;;;;;;5141036;23;20429;-81
2021/09/10 10:56:44;;;;;;;13.53;11.70;;;19.10;98.30;;;;;;5149852;23;20413;-79
2021/09/10 10:58:47;;;;;;;20.53;14.70;;;19.10;98.30;;;;;;5141000;23;20409;-80
2021/09/10 11:00:51;;;;;;;18.50;12.93;;;19.20;98.30;;;;;;5142623;23;20429;-81
2021/09/10 11:03:33;;;;;;;15.10;12.23;;;19.40;98.30;;;;;;5151130;23;20496;-80
2021/09/10 11:05:37;;;;;;;14.17;12.67;;;19.60;98.30;;;;;;5152186;23;20433;-81
2021/09/10 11:07:41;;;;;;;13.87;11.67;;;19.70;98.30;;;;;;5145753;23;20424;-81
2021/09/10 11:09:57;;;;;;;13.83;12.43;;;19.90;98.30;;;;;;5144296;23;20424;-81
2021/09/10 11:12:00;;;;;;;12.93;11.53;;;20.00;98.30;;;;;;5144012;23;20520;-81
2021/09/10 11:14:08;;;;;;;12.43;10.73;;;20.00;98.30;;;;;;5143242;23;20425;-81
2021/09/10 11:16:11;;;;;;;13.93;10.10;;;20.00;98.30;;;;;;5144983;23;20921;-80
2021/09/10 11:18:15;;;;;;;11.10;9.70;;;20.00;98.30;;;;;;5154746;23;20471;-81
2021/09/10 11:20:25;;;;;;;12.73;9.70;;;20.00;98.30;;;;;;5153729;23;20563;-81
2021/09/10 11:22:29;;;;;;;9.63;8.37;;;20.00;98.30;;;;;;5147477;23;20421;-81
2021/09/10 11:24:32;;;;;;;10.27;9.27;;;20.00;98.30;;;;;;5148074;23;20457;-81
2021/09/10 11:26:36;;;;;;;9.60;8.60;;;20.00;98.30;;;;;;5148306;23;20813;-80
2021/09/10 11:28:40;;;;;;;10.50;9.40;;;19.80;98.30;;;;;;5158220;23;20424;-80
2021/09/10 11:30:45;;;;;;;9.87;8.33;;;19.90;98.30;;;;;;5147752;23;20556;-81
2021/09/10 11:32:58;;;;;;;10.80;9.70;;;20.00;98.30;;;;;;5156338;23;20519;-81
2021/09/10 11:35:01;;;;;;;11.20;9.63;;;20.10;98.30;;;;;;5146847;23;20449;-81
2021/09/10 11:37:05;;;;;;;12.83;10.27;;;20.20;98.30;;;;;;5147699;23;20431;-80
2021/09/10 11:39:09;;;;;;;10.73;9.73;;;20.20;98.30;;;;;;5147793;23;20906;-81
2021/09/10 11:41:18;;;;;;;10.70;9.60;;;20.20;98.30;;;;;;5146769;23;20420;-80
2021/09/10 11:43:25;;;;;;;11.80;9.70;;;20.30;98.30;;;;;;5146944;23;20466;-81
2021/09/10 11:45:34;;;;;;;10.60;8.40;;;20.30;98.30;;;;;;5146799;23;20449;-81
2021/09/10 11:47:38;;;;;;;10.10;8.43;;;20.30;98.30;;;;;;5146963;23;20416;-81
2021/09/10 11:49:41;;;;;;;9.70;8.30;;;20.30;98.30;;;;;;5144767;23;20433;-81
2021/09/10 11:51:48;;;;;;;9.80;7.57;;;20.40;98.30;;;;;;5153229;23;20952;-81
2021/09/10 11:53:56;;;;;;;8.00;7.20;;;20.50;98.30;;;;;;5144801;23;20451;-80
2021/09/10 11:56:04;;;;;;;8.13;6.03;;;20.50;98.30;;;;;;5145731;23;20437;-81
2021/09/10 11:58:12;;;;;;;7.53;6.60;;;20.60;98.30;;;;;;5153710;23;20397;-81
2021/09/10 12:00:24;;;;;;;7.47;6.77;;;20.60;98.30;;;;;;5145331;23;20408;-81
2021/09/10 12:02:27;;;;;;;12.50;6.83;;;20.70;98.30;;;;;;5145538;23;20413;-80
2021/09/10 12:04:33;;;;;;;9.47;7.90;;;21.00;98.30;;;;;;5145278;23;20452;-80
2021/09/10 12:06:38;;;;;;;9.37;6.67;;;21.10;98.30;;;;;;5145271;23;20417;-81
2021/09/10 12:09:10;;;;;;;7.57;6.60;;;21.30;98.30;;;;;;5153654;23;20802;-80
2021/09/10 12:11:22;;;;;;;7.00;6.30;;;21.40;98.30;;;;;;5153534;23;20479;-81
2021/09/10 12:13:33;;;;;;;7.13;6.37;;;21.60;98.30;;;;;;5153847;23;20500;-81
2021/09/10 12:15:37;;;;;;;6.73;6.10;;;21.70;98.30;;;;;;5144775;23;20524;-81
2021/09/10 12:17:39;;;;;;;8.27;6.70;;;21.90;98.30;;;;;;5153277;23;20416;-80
2021/09/10 12:19:56;;;;;;;8.27;7.47;;;22.30;98.30;;;;;;5153771;23;20424;-80
2021/09/10 12:21:59;;;;;;;7.50;6.07;;;22.90;98.30;;;;;;5146350;23;20417;-81
2021/09/10 12:24:09;;;;;;;7.00;6.20;;;23.10;98.30;;;;;;5153983;23;20495;-81
2021/09/10 12:26:13;;;;;;;5.80;5.20;;;23.40;98.30;;;;;;5145609;23;20447;-79
2021/09/10 12:28:30;;;;;;;5.97;5.37;;;23.80;98.30;;;;;;5153340;23;20428;-81
2021/09/10 12:30:38;;;;;;;7.27;5.30;;;24.40;98.30;;;;;;5145693;23;20413;-81
2021/09/10 12:32:42;;;;;;;5.70;5.20;;;24.50;98.30;;;;;;5144677;23;20452;-80
2021/09/10 12:34:46;;;;;;;5.40;4.90;;;24.00;98.30;;;;;;5143910;23;20445;-81
2021/09/10 12:36:49;;;;;;;6.97;6.37;;;23.80;98.30;;;;;;5152934;23;20437;-80
2021/09/10 12:38:52;;;;;;;6.60;6.00;;;23.50;98.30;;;;;;5144851;23;20435;-81
2021/09/10 12:40:55;;;;;;;8.70;7.90;;;23.10;98.30;;;;;;5152262;23;20479;-81
2021/09/10 12:42:59;;;;;;;6.23;5.13;;;22.90;98.30;;;;;;5144520;23;20436;-81
2021/09/10 12:45:03;;;;;;;6.43;5.80;;;23.20;98.30;;;;;;5152696;23;20455;-81
2021/09/10 12:47:06;;;;;;;5.77;5.20;;;22.90;98.30;;;;;;5145393;23;20421;-80
2021/09/10 12:49:09;;;;;;;6.20;5.60;;;22.70;98.30;;;;;;5143566;23;20433;-81
2021/09/10 12:51:12;;;;;;;6.17;5.67;;;22.50;98.30;;;;;;5144877;23;20483;-81
2021/09/10 12:53:15;;;;;;;6.20;5.60;;;22.40;98.30;;;;;;5145214;23;20429;-81
2021/09/10 12:55:19;;;;;;;6.47;5.60;;;22.40;98.30;;;;;;5152037;23;20448;-81
2021/09/10 12:57:24;;;;;;;6.37;5.67;;;22.30;98.30;;;;;;5144678;23;20449;-81
2021/09/10 12:59:27;;;;;;;6.63;6.03;;;22.10;98.30;;;;;;5144846;23;20413;-81
2021/09/10 13:01:35;;;;;;;8.70;6.03;;;22.00;98.30;;;;;;5153645;23;20417;-81
2021/09/10 13:03:38;;;;;;;6.60;5.90;;;22.00;98.30;;;;;;5144475;23;20495;-81
2021/09/10 13:05:42;;;;;;;7.00;6.40;;;22.00;98.30;;;;;;5153262;23;20821;-80
2021/09/10 13:07:46;;;;;;;8.87;6.83;;;22.00;98.30;;;;;;5145323;23;20429;-79
2021/09/10 13:09:49;;;;;;;7.03;6.33;;;22.00;98.30;;;;;;5144901;23;20432;-81
2021/09/10 13:11:52;;;;;;;8.30;6.77;;;22.20;98.30;;;;;;5152554;23;20429;-81
2021/09/10 13:13:54;;;;;;;6.57;5.97;;;22.70;98.30;;;;;;5143918;23;20432;-80
2021/09/10 13:16:01;;;;;;;6.63;6.03;;;23.30;98.30;;;;;;5144104;23;20483;-81
2021/09/10 13:18:04;;;;;;;8.17;6.40;;;23.70;98.30;;;;;;5153213;23;20516;-81
2021/09/10 13:20:09;;;;;;;6.17;5.57;;;23.50;98.30;;;;;;5152762;23;20500;-80
2021/09/10 13:22:13;;;;;;;6.93;6.30;;;23.00;98.30;;;;;;5144574;23;20933;-81
2021/09/10 13:24:20;;;;;;;6.27;5.67;;;22.90;98.30;;;;;;5143513;23;20548;-81
2021/09/10 13:26:23;;;;;;;6.90;5.57;;;22.70;98.30;;;;;;5144068;23;20425;-80
2021/09/10 13:28:42;;;;;;;6.97;5.47;;;22.60;98.30;;;;;;5141687;23;20429;-81
2021/09/10 13:30:48;;;;;;;6.10;5.43;;;22.40;98.30;;;;;;5144097;23;20409;-81
2021/09/10 13:32:55;;;;;;;6.63;5.90;;;22.20;98.30;;;;;;5144687;23;20795;-81
2021/09/10 13:34:59;;;;;;;7.23;6.63;;;22.10;98.30;;;;;;5142928;23;20445;-80
2021/09/10 13:37:02;;;;;;;7.13;6.23;;;22.20;98.30;;;;;;5142443;23;20441;-81
2021/09/10 13:39:05;;;;;;;6.63;5.97;;;22.10;98.30;;;;;;5143432;23;20483;-81
2021/09/10 13:41:08;;;;;;;7.13;6.43;;;22.20;98.30;;;;;;5143073;23;20433;-80
2021/09/10 13:43:11;;;;;;;7.00;6.40;;;22.30;98.30;;;;;;5151553;23;20855;-81
2021/09/10 13:45:14;;;;;;;6.60;5.83;;;22.50;98.30;;;;;;5143263;23;20449;-80
2021/09/10 13:47:17;;;;;;;6.70;6.00;;;22.70;98.30;;;;;;5143965;23;20431;-81
2021/09/10 13:49:20;;;;;;;6.40;5.80;;;22.70;98.30;;;;;;5158239;23;20431;-81
2021/09/10 13:51:24;;;;;;;8.20;6.67;;;22.80;98.30;;;;;;5154225;23;20432;-81
2021/09/10 13:53:27;;;;;;;7.57;6.87;;;22.90;98.30;;;;;;5163146;23;20773;-80
2021/09/10 13:55:30;;;;;;;7.57;6.80;;;22.90;98.30;;;;;;5154184;23;20445;-81
2021/09/10 13:57:33;;;;;;;7.60;6.80;;;22.80;98.30;;;;;;5155090;23;20503;-80
2021/09/10 13:59:36;;;;;;;7.03;6.43;;;22.80;98.30;;;;;;5154225;23;20433;-81
2021/09/10 14:01:39;;;;;;;9.00;8.20;;;22.80;98.30;;;;;;5162111;23;20425;-80
2021/09/10 14:03:42;;;;;;;8.10;7.30;;;22.70;98.30;;;;;;5150109;23;20424;-81
2021/09/10 14:05:45;;;;;;;8.27;7.57;;;22.60;98.30;;;;;;5154644;23;20468;-81
2021/09/10 14:07:49;;;;;;;7.53;6.93;;;22.70;98.30;;;;;;5146411;23;20439;-80
2021/09/10 14:09:52;;;;;;;8.60;7.83;;;22.70;98.30;;;;;;5146592;23;20432;-81
2021/09/10 14:11:55;;;;;;;8.07;7.37;;;22.50;98.30;;;;;;5154425;23;20417;-81
2021/09/10 14:13:58;;;;;;;8.80;8.10;;;22.60;98.30;;;;;;5145441;23;20432;-80
2021/09/10 14:16:01;;;;;;;7.97;7.13;;;22.60;98.30;;;;;;5155119;23;20405;-81
2021/09/10 14:18:04;;;;;;;8.10;7.30;;;22.40;98.30;;;;;;5146038;23;20511;-80
2021/09/10 14:20:08;;;;;;;8.80;7.83;;;22.40;98.30;;;;;;5146082;23;20739;-81
2021/09/10 14:22:11;;;;;;;8.53;7.37;;;22.30;98.30;;;;;;5154461;23;20479;-81
2021/09/10 14:24:15;;;;;;;10.60;9.60;;;22.40;98.30;;;;;;5145175;23;20448;-81
2021/09/10 14:26:19;;;;;;;11.07;9.93;;;22.40;98.30;;;;;;5145625;23;20805;-81
2021/09/10 14:28:22;;;;;;;10.33;9.40;;;22.60;98.30;;;;;;5153795;23;20425;-81
2021/09/10 14:30:25;;;;;;;7.73;7.00;;;22.60;98.30;;;;;;5145953;23;20431;-80
2021/09/10 14:32:28;;;;;;;7.60;6.93;;;22.70;98.30;;;;;;5145061;23;20432;-81
2021/09/10 14:34:32;;;;;;;9.07;8.17;;;22.70;98.30;;;;;;5144405;23;20452;-81
2021/09/10 14:36:35;;;;;;;8.77;7.87;;;22.80;98.30;;;;;;5153741;23;20421;-81
2021/09/10 14:38:38;;;;;;;8.20;7.40;;;22.80;98.30;;;;;;5146409;23;20899;-81
2021/09/10 14:40:42;;;;;;;8.70;7.90;;;22.70;98.30;;;;;;5146044;23;20424;-81
2021/09/10 14:42:45;;;;;;;8.23;7.53;;;22.70;98.30;;;;;;5145665;23;20429;-81
2021/09/10 14:44:48;;;;;;;9.53;7.97;;;22.60;98.30;;;;;;5155493;23;20854;-80
2021/09/10 14:46:51;;;;;;;8.17;7.47;;;22.60;98.30;;;;;;5153734;23;20432;-81
2021/09/10 14:48:55;;;;;;;9.83;7.80;;;22.70;98.30;;;;;;5145567;23;20432;-81
2021/09/10 14:50:58;;;;;;;7.83;6.83;;;22.80;98.30;;;;;;5155468;23;20512;-81
2021/09/10 14:53:01;;;;;;;7.77;6.97;;;22.90;98.30;;;;;;5147674;23;20436;-81
2021/09/10 14:55:05;;;;;;;7.90;7.10;;;22.90;98.30;;;;;;5146403;23;20953;-81
2021/09/10 14:57:09;;;;;;;8.80;8.00;;;23.10;98.30;;;;;;5147229;23;20449;-80
2021/09/10 14:59:20;;;;;;;8.70;7.80;;;23.00;98.30;;;;;;5147124;23;20436;-81
2021/09/10 15:01:28;;;;;;;9.60;8.60;;;23.10;98.30;;;;;;5155312;23;20408;-81
2021/09/10 15:03:31;;;;;;;8.97;8.07;;;23.20;98.30;;;;;;5147383;23;20424;-81
2021/09/10 15:05:34;;;;;;;7.67;6.97;;;23.30;98.30;;;;;;5146541;23;20465;-81
2021/09/10 15:07:38;;;;;;;7.43;6.83;;;23.40;98.30;;;;;;5154629;23;20484;-80
2021/09/10 15:09:40;;;;;;;7.93;7.13;;;23.40;98.30;;;;;;5155465;23;20480;-81
2021/09/10 15:11:43;;;;;;;8.17;7.37;;;23.40;98.30;;;;;;5154762;23;20421;-81
2021/09/10 15:13:48;;;;;;;8.00;7.30;;;23.40;98.30;;;;;;5146778;23;20948;-81
2021/09/10 15:15:51;;;;;;;10.00;9.00;;;23.40;98.30;;;;;;5155682;23;20420;-80
2021/09/10 15:17:57;;;;;;;8.13;7.33;;;23.40;98.30;;;;;;5147340;23;20448;-81
2021/09/10 15:20:07;;;;;;;8.10;7.40;;;23.50;98.30;;;;;;5155689;23;20480;-81
2021/09/10 15:22:11;;;;;;;7.60;6.90;;;23.60;98.30;;;;;;5154691;23;20428;-81
2021/09/10 15:24:14;;;;;;;8.40;7.60;;;23.50;98.30;;;;;;5146274;23;20452;-79
2021/09/10 15:26:16;;;;;;;7.93;7.23;;;23.60;98.30;;;;;;5146968;23;20447;-81
2021/09/10 15:28:19;;;;;;;8.10;7.40;;;23.70;98.30;;;;;;5147356;23;20512;-82
2021/09/10 15:30:26;;;;;;;7.30;6.70;;;23.80;98.30;;;;;;5145645;23;20494;-80
2021/09/10 15:32:29;;;;;;;6.97;6.37;;;24.10;98.30;;;;;;5155517;23;20420;-81
2021/09/10 15:34:32;;;;;;;7.43;6.73;;;24.10;98.30;;;;;;5153841;23;20440;-81
2021/09/10 15:36:35;;;;;;;7.43;6.77;;;24.10;98.30;;;;;;5153899;23;20430;-81
2021/09/10 15:38:37;;;;;;;7.67;6.97;;;24.00;98.30;;;;;;5153493;23;20448;-81
2021/09/10 15:40:42;;;;;;;7.23;5.80;;;24.00;98.30;;;;;;5147483;23;20437;-81
2021/09/10 15:42:44;;;;;;;7.17;6.57;;;24.10;98.30;;;;;;5146106;23;20429;-81
2021/09/10 15:44:48;;;;;;;7.27;6.67;;;24.10;98.30;;;;;;5146514;23;20970;-81
2021/09/10 15:46:52;;;;;;;7.53;6.73;;;24.00;98.30;;;;;;5153965;23;20429;-81
2021/09/10 15:48:56;;;;;;;6.67;6.07;;;24.00;98.30;;;;;;5155011;23;20424;-81
2021/09/10 15:50:59;;;;;;;8.50;7.17;;;23.90;98.30;;;;;;5153988;23;20516;-81
2021/09/10 15:53:02;;;;;;;7.60;6.90;;;23.90;98.30;;;;;;5146012;23;20496;-81
2021/09/10 15:55:07;;;;;;;9.10;8.20;;;23.90;98.30;;;;;;5145565;23;20453;-80
2021/09/10 15:57:11;;;;;;;7.50;6.80;;;23.80;98.30;;;;;;5146945;23;20777;-80
2021/09/10 15:59:15;;;;;;;7.80;7.10;;;23.80;98.30;;;;;;5146339;23;20451;-81
2021/09/10 16:01:19;;;;;;;8.20;7.20;;;23.80;98.30;;;;;;5145616;23;20429;-81
2021/09/10 16:03:24;;;;;;;7.70;7.10;;;23.70;98.30;;;;;;5155413;23;20882;-81
2021/09/10 16:05:27;;;;;;;7.40;6.70;;;23.60;98.30;;;;;;5154870;23;20473;-80
2021/09/10 16:07:30;;;;;;;8.53;7.63;;;23.40;98.30;;;;;;5146583;23;20425;-81
2021/09/10 16:09:33;;;;;;;8.40;7.60;;;23.40;98.30;;;;;;5145941;23;20421;-81
2021/09/10 16:11:36;;;;;;;7.60;6.90;;;23.30;98.30;;;;;;5154370;23;20480;-81
2021/09/10 16:13:39;;;;;;;8.37;7.57;;;23.30;98.30;;;;;;5147446;23;20425;-80
2021/09/10 16:15:42;;;;;;;8.97;6.80;;;23.30;98.30;;;;;;5145745;23;20456;-80
2021/09/10 16:17:45;;;;;;;8.10;7.30;;;23.20;98.30;;;;;;5154983;23;20421;-80
2021/09/10 16:19:51;;;;;;;8.73;7.00;;;23.20;98.30;;;;;;5146492;23;20443;-79
2021/09/10 16:21:56;;;;;;;7.33;6.47;;;23.10;98.30;;;;;;5154478;23;20409;-81
2021/09/10 16:23:59;;;;;;;9.43;7.50;;;23.20;98.30;;;;;;5153069;23;20421;-81
2021/09/10 16:26:02;;;;;;;8.70;7.27;;;23.10;98.30;;;;;;5144969;23;20482;-81
2021/09/10 16:28:06;;;;;;;8.90;7.80;;;23.00;98.30;;;;;;5146036;23;20928;-81
2021/09/10 16:30:11;;;;;;;7.43;6.73;;;22.90;98.30;;;;;;5146131;23;20428;-80
2021/09/10 16:32:18;;;;;;;7.70;6.50;;;22.80;98.30;;;;;;5154808;23;21000;-80
2021/09/10 16:34:21;;;;;;;6.70;6.07;;;22.70;98.30;;;;;;5153385;23;20440;-79
2021/09/10 16:36:26;;;;;;;7.90;7.13;;;22.60;98.30;;;;;;5154737;23;20520;-80
2021/09/10 16:38:28;;;;;;;7.97;7.17;;;22.50;98.30;;;;;;5146346;23;20444;-79
2021/09/10 16:40:31;;;;;;;8.63;7.30;;;22.30;98.30;;;;;;5146202;23;20439;-81
2021/09/10 16:42:34;;;;;;;8.17;7.37;;;22.10;98.30;;;;;;5154077;23;20487;-81
2021/09/10 16:44:37;;;;;;;8.27;7.47;;;21.90;98.30;;;;;;5145362;23;20445;-81
2021/09/10 16:46:40;;;;;;;7.90;6.90;;;21.90;98.30;;;;;;5144503;23;20786;-81
2021/09/10 16:48:44;;;;;;;9.27;7.70;;;21.90;98.30;;;;;;5154717;23;20496;-80
2021/09/10 16:50:47;;;;;;;9.80;8.07;;;21.90;98.30;;;;;;5154232;23;20456;-81
2021/09/10 16:52:51;;;;;;;8.13;7.43;;;22.10;98.30;;;;;;5146650;23;20436;-81
2021/09/10 16:54:54;;;;;;;9.30;8.20;;;22.00;98.30;;;;;;5146321;23;20453;-81
2021/09/10 16:57:00;;;;;;;13.23;8.40;;;22.00;98.30;;;;;;5153698;23;20421;-81
2021/09/10 16:59:03;;;;;;;9.10;7.43;;;22.10;98.30;;;;;;5146009;23;20453;-81
2021/09/10 17:01:06;;;;;;;9.30;8.40;;;22.00;98.30;;;;;;5146195;23;20433;-80
2021/09/10 17:03:09;;;;;;;8.90;8.07;;;22.00;98.30;;;;;;5145387;23;20440;-81
2021/09/10 17:05:13;;;;;;;8.30;7.47;;;22.00;98.30;;;;;;5152790;23;20495;-81
2021/09/10 17:07:16;;;;;;;8.73;7.93;;;21.80;98.30;;;;;;5154181;23;20645;-81
2021/09/10 17:09:20;;;;;;;9.73;8.00;;;21.70;98.30;;;;;;5154113;23;20454;-80
2021/09/10 17:11:28;;;;;;;8.93;7.70;;;21.70;98.30;;;;;;5154464;23;20406;-81
2021/09/10 17:13:31;;;;;;;9.20;8.27;;;21.60;98.30;;;;;;5154322;23;20497;-80
2021/09/10 17:15:34;;;;;;;12.00;8.80;;;21.70;98.30;;;;;;5145535;23;20491;-81
2021/09/10 17:17:38;;;;;;;8.73;7.87;;;21.80;98.30;;;;;;5153250;23;20432;-81
2021/09/10 17:19:41;;;;;;;10.50;8.57;;;21.80;98.30;;;;;;5154033;23;20437;-81
2021/09/10 17:21:47;;;;;;;10.60;9.47;;;21.90;98.30;;;;;;5153934;23;20503;-79
2021/09/10 17:23:50;;;;;;;14.00;12.40;;;21.80;98.30;;;;;;5153355;23;20420;-80
2021/09/10 17:25:54;;;;;;;11.03;10.00;;;21.80;98.30;;;;;;5154137;23;20452;-80
2021/09/10 17:27:58;;;;;;;9.13;8.33;;;21.80;98.30;;;;;;5144147;23;20429;-80
2021/09/10 17:30:04;;;;;;;9.50;8.03;;;21.80;98.30;;;;;;5146260;23;20810;-80
2021/09/10 17:32:18;;;;;;;11.60;9.30;;;21.80;98.30;;;;;;5155048;23;20417;-81
2021/09/10 17:34:44;;;;;;;9.67;8.67;;;21.70;98.30;;;;;;5154253;23;21274;-80
2021/09/10 17:36:47;;;;;;;10.17;9.17;;;21.80;98.30;;;;;;5154638;23;20459;-80
2021/09/10 17:38:50;;;;;;;10.43;9.43;;;21.70;98.30;;;;;;5154381;23;20515;-79
2021/09/10 17:40:55;;;;;;;10.00;8.73;;;21.70;98.30;;;;;;5147371;23;20732;-80
2021/09/10 17:42:58;;;;;;;9.30;8.40;;;21.70;98.30;;;;;;5146187;23;20922;-80
2021/09/10 17:45:00;;;;;;;10.63;9.50;;;21.70;98.30;;;;;;5153111;23;20472;-80
2021/09/10 17:47:04;;;;;;;10.47;9.40;;;21.60;98.30;;;;;;5145922;23;20429;-80
2021/09/10 17:49:07;;;;;;;10.03;9.03;;;21.60;98.30;;;;;;5145447;23;20484;-80
2021/09/10 17:51:10;;;;;;;11.00;8.77;;;21.60;98.30;;;;;;5154430;23;20504;-80
2021/09/10 17:53:12;;;;;;;9.83;8.93;;;21.60;98.30;;;;;;5154662;23;20460;-79
2021/09/10 17:55:15;;;;;;;14.37;11.10;;;21.50;98.30;;;;;;5154508;23;20452;-80
2021/09/10 17:57:19;;;;;;;10.80;9.73;;;21.30;98.30;;;;;;5155215;23;20425;-80
2021/09/10 17:59:22;;;;;;;11.27;10.17;;;21.30;98.30;;;;;;5148379;23;20444;-80
2021/09/10 18:01:25;;;;;;;11.73;10.47;;;21.30;98.30;;;;;;5155197;23;20429;-80
2021/09/10 18:03:29;;;;;;;12.33;11.13;;;21.30;98.30;;;;;;5153390;23;20813;-79
2021/09/10 18:05:33;;;;;;;11.37;9.80;;;21.10;98.30;;;;;;5164052;23;20472;-79
2021/09/10 18:07:36;;;;;;;11.13;10.00;;;21.00;98.30;;;;;;5156658;23;20429;-78
2021/09/10 18:09:41;;;;;;;11.50;9.77;;;20.90;98.30;;;;;;5164172;23;20723;-79
2021/09/10 18:11:51;;;;;;;13.30;10.90;;;20.90;98.30;;;;;;5163413;23;20427;-79
2021/09/10 18:13:59;;;;;;;11.63;10.10;;;20.90;98.30;;;;;;5162414;23;20429;-78
2021/09/10 18:16:04;;;;;;;12.83;11.53;;;20.80;98.30;;;;;;5161167;23;20511;-79
2021/09/10 18:18:10;;;;;;;14.23;11.57;;;20.80;98.30;;;;;;5156249;23;20416;-80
2021/09/10 18:20:14;;;;;;;12.37;11.07;;;20.70;98.30;;;;;;5157129;23;20476;-79
2021/09/10 18:22:22;;;;;;;11.20;10.13;;;20.70;98.30;;;;;;5156664;23;20817;-80
2021/09/10 18:24:25;;;;;;;13.10;11.10;;;20.80;98.30;;;;;;5155106;23;20444;-80
2021/09/10 18:26:30;;;;;;;13.37;11.97;;;20.90;98.30;;;;;;5156018;23;20455;-79
2021/09/10 18:28:33;;;;;;;13.13;11.83;;;20.80;98.30;;;;;;5154477;23;20428;-79
2021/09/10 18:30:40;;;;;;;14.80;13.30;;;20.70;98.30;;;;;;5153235;23;21053;-79
2021/09/10 18:32:43;;;;;;;14.83;13.13;;;20.60;98.30;;;;;;5153583;23;20937;-79
2021/09/10 18:34:58;;;;;;;14.27;12.87;;;20.70;98.30;;;;;;5152177;23;20455;-80
2021/09/10 18:37:04;;;;;;;14.80;13.30;;;20.80;98.30;;;;;;5153728;23;20504;-80
2021/09/10 18:39:07;;;;;;;14.90;12.50;;;20.60;98.30;;;;;;5147273;23;20428;-77
2021/09/10 18:41:12;;;;;;;17.10;14.67;;;20.50;98.30;;;;;;5147476;23;20503;-80
2021/09/10 18:43:15;;;;;;;25.40;21.20;;;20.40;98.30;;;;;;5146935;23;20432;-80
2021/09/10 18:45:19;;;;;;;14.83;13.33;;;20.50;98.30;;;;;;5144928;23;20753;-80
2021/09/10 18:47:23;;;;;;;15.97;14.37;;;20.50;98.30;;;;;;5147033;23;20468;-80
2021/09/10 18:49:26;;;;;;;15.83;14.20;;;20.50;98.30;;;;;;5155621;23;20420;-79
2021/09/10 18:51:29;;;;;;;17.57;14.30;;;20.50;98.30;;;;;;5156147;23;20891;-80
2021/09/10 18:53:32;;;;;;;17.30;15.10;;;20.50;98.30;;;;;;5153770;23;20419;-81
2021/09/10 18:55:35;;;;;;;15.60;14.10;;;20.60;98.30;;;;;;5154450;23;20448;-77
2021/09/10 18:57:39;;;;;;;16.97;14.17;;;20.60;98.30;;;;;;5146599;23;20435;-80
2021/09/10 18:59:42;;;;;;;17.03;15.27;;;20.50;98.30;;;;;;5146223;23;20451;-80
2021/09/10 19:01:45;;;;;;;18.23;16.30;;;20.50;98.30;;;;;;5146013;23;20436;-80
2021/09/10 19:03:50;;;;;;;16.90;15.20;;;20.60;98.30;;;;;;5146386;23;20463;-81
2021/09/10 19:05:53;;;;;;;16.77;15.07;;;20.70;98.30;;;;;;5153571;23;20421;-80
2021/09/10 19:07:56;;;;;;;15.33;13.77;;;20.60;98.30;;;;;;5154369;23;20421;-80
2021/09/10 19:09:59;;;;;;;17.30;15.70;;;20.50;98.30;;;;;;5146010;23;20504;-80
2021/09/10 19:12:02;;;;;;;17.30;15.37;;;20.30;98.30;;;;;;5146273;23;20429;-79
2021/09/10 19:14:05;;;;;;;17.83;16.13;;;20.30;98.30;;;;;;5146323;23;20428;-80
2021/09/10 19:16:08;;;;;;;19.93;17.80;;;20.30;98.30;;;;;;5145681;23;20435;-81
2021/09/10 19:18:11;;;;;;;19.50;17.73;;;20.20;98.30;;;;;;5154594;23;20424;-81
2021/09/10 19:20:16;;;;;;;20.20;18.20;;;20.10;98.30;;;;;;5154047;23;20448;-80
2021/09/10 19:22:19;;;;;;;23.90;19.37;;;20.10;98.30;;;;;;5145718;23;21162;-80
2021/09/10 19:24:22;;;;;;;20.30;18.17;;;20.10;98.30;;;;;;5154140;23;21001;-79
2021/09/10 19:26:25;;;;;;;21.40;19.27;;;20.10;98.30;;;;;;5144766;23;20487;-79
2021/09/10 19:28:30;;;;;;;21.10;18.83;;;20.10;98.30;;;;;;5146200;23;20828;-80
2021/09/10 19:30:33;;;;;;;22.90;20.10;;;20.00;98.30;;;;;;5143723;23;20814;-80
2021/09/10 19:32:38;;;;;;;22.20;19.90;;;20.00;98.30;;;;;;5145523;23;20501;-80
2021/09/10 19:34:41;;;;;;;22.50;20.20;;;20.00;98.30;;;;;;5143185;23;20449;-80
2021/09/10 19:36:45;;;;;;;21.57;18.97;;;20.00;98.30;;;;;;5152712;23;20435;-79
2021/09/10 19:38:49;;;;;;;14.00;12.17;;;20.00;98.30;;;;;;5145064;23;20444;-80
2021/09/10 19:40:54;;;;;;;13.37;11.97;;;19.90;98.30;;;;;;5151212;23;20441;-81
2021/09/10 19:42:59;;;;;;;14.60;10.87;;;19.60;98.30;;;;;;5151970;23;20431;-79
2021/09/10 19:45:04;;;;;;;12.27;10.97;;;19.20;98.30;;;;;;5150535;23;20942;-80
2021/09/10 19:47:08;;;;;;;9.70;8.73;;;19.10;98.30;;;;;;5142109;23;20432;-78
2021/09/10 19:49:12;;;;;;;9.00;8.10;;;18.90;98.30;;;;;;5150409;23;20425;-79
2021/09/10 19:51:14;;;;;;;8.93;7.80;;;18.70;98.30;;;;;;5142088;23;20429;-78
2021/09/10 19:53:19;;;;;;;10.00;9.00;;;18.60;98.30;;;;;;5143647;23;20440;-80